Time;durP1;ratioP1;P1;durP2;ratioP2;P2;SDS_P1;SDS_P2;PMS_P1;PMS_P2;Temp;Humidity;BMP_temperature;BMP_pressure;BME280_temperature;BME280_humidity;BME280_pressure;Samples;Min_cycle;Max_cycle;Signal;HPM_P1;HPM_P2
2020/12/11 00:02:14;;;;;;;381.02;55.03;;;;;;;;;;4981867;28;20413;-85
2020/12/11 00:04:40;;;;;;;341.85;54.63;;;;;;;;;;4980216;28;20038;-83
2020/12/11 00:07:06;;;;;;;310.27;52.72;;;;;;;;;;4982230;28;20057;-84
2020/12/11 00:09:32;;;;;;;267.15;52.10;;;;;;;;;;4981562;28;20042;-84
2020/12/11 00:12:01;;;;;;;254.02;48.92;;;;;;;;;;4981202;28;20050;-82
2020/12/11 00:14:27;;;;;;;237.82;49.35;;;;;;;;;;4999697;28;20682;-82
2020/12/11 00:16:53;;;;;;;284.80;50.38;;;;;;;;;;4981088;28;20042;-83
2020/12/11 00:19:20;;;;;;;175.48;39.38;;;;;;;;;;4997915;28;20034;-84
2020/12/11 00:21:48;;;;;;;189.07;42.72;;;;;;;;;;4979753;28;20038;-82
2020/12/11 00:24:14;;;;;;;161.43;36.97;;;;;;;;;;4987428;28;20057;-83
2020/12/11 00:26:41;;;;;;;143.75;35.00;;;;;;;;;;4996241;28;20569;-84
2020/12/11 00:29:09;;;;;;;131.27;33.45;;;;;;;;;;4993676;28;20050;-82
2020/12/11 00:31:38;;;;;;;116.20;32.30;;;;;;;;;;4975919;28;20053;-82
2020/12/11 00:34:06;;;;;;;111.93;31.73;;;;;;;;;;4962498;28;20584;-82
2020/12/11 00:36:32;;;;;;;118.13;32.08;;;;;;;;;;4980180;28;20133;-83
2020/12/11 00:38:59;;;;;;;114.45;30.23;;;;;;;;;;4997106;28;20046;-83
2020/12/11 00:41:25;;;;;;;117.07;30.95;;;;;;;;;;4980393;28;20046;-83
2020/12/11 00:43:51;;;;;;;112.03;30.33;;;;;;;;;;4979410;28;20038;-84
2020/12/11 00:46:23;;;;;;;106.32;29.85;;;;;;;;;;4979367;28;20049;-82
2020/12/11 00:48:49;;;;;;;99.32;28.77;;;;;;;;;;4978811;28;20043;-84
2020/12/11 00:51:20;;;;;;;106.80;30.25;;;;;;;;;;4979024;28;20051;-82
2020/12/11 00:53:47;;;;;;;97.57;29.63;;;;;;;;;;4976278;28;20089;-82
2020/12/11 00:56:13;;;;;;;103.78;29.58;;;;;;;;;;4993461;28;20042;-83
2020/12/11 00:58:40;;;;;;;100.30;29.13;;;;;;;;;;4975480;28;20574;-83
2020/12/11 01:01:06;;;;;;;116.75;30.25;;;;;;;;;;4975662;28;20368;-83
2020/12/11 01:03:33;;;;;;;105.15;30.40;;;;;;;;;;4974830;28;20043;-83
2020/12/11 01:05:59;;;;;;;106.80;28.90;;;;;;;;;;4979297;28;20046;-82
2020/12/11 01:08:25;;;;;;;124.15;31.52;;;;;;;;;;4992337;28;20042;-83
2020/12/11 01:10:51;;;;;;;105.82;30.13;;;;;;;;;;4984591;28;20130;-82
2020/12/11 01:13:18;;;;;;;112.65;31.70;;;;;;;;;;5014945;28;20427;-84
2020/12/11 01:15:44;;;;;;;118.55;32.42;;;;;;;;;;5014401;28;20062;-83
2020/12/11 01:18:10;;;;;;;99.20;30.65;;;;;;;;;;4998169;28;20486;-83
2020/12/11 01:20:37;;;;;;;91.93;28.98;;;;;;;;;;5015448;28;20141;-82
2020/12/11 01:23:03;;;;;;;103.65;30.52;;;;;;;;;;5013648;28;20386;-83
2020/12/11 01:25:30;;;;;;;95.25;29.05;;;;;;;;;;4996670;28;20060;-84
2020/12/11 01:27:56;;;;;;;99.78;30.13;;;;;;;;;;4983830;28;20065;-81
2020/12/11 01:30:22;;;;;;;94.40;30.17;;;;;;;;;;5017440;28;20046;-84
2020/12/11 01:32:49;;;;;;;96.78;30.65;;;;;;;;;;5015636;28;20045;-82
2020/12/11 01:35:16;;;;;;;99.82;30.48;;;;;;;;;;4998097;28;20073;-85
2020/12/11 01:37:43;;;;;;;82.78;27.83;;;;;;;;;;5014808;28;20092;-83
2020/12/11 01:40:09;;;;;;;87.47;29.73;;;;;;;;;;5015695;28;20046;-84
2020/12/11 01:42:35;;;;;;;85.00;28.65;;;;;;;;;;5015264;28;20052;-84
2020/12/11 01:45:03;;;;;;;98.97;28.80;;;;;;;;;;4981178;28;20042;-83
2020/12/11 01:47:38;;;;;;;86.95;28.70;;;;;;;;;;4997406;28;20092;-84
2020/12/11 01:50:06;;;;;;;95.57;30.60;;;;;;;;;;4998883;28;20046;-83
2020/12/11 01:52:32;;;;;;;94.00;30.48;;;;;;;;;;5004962;28;20038;-84
2020/12/11 01:54:58;;;;;;;90.13;29.25;;;;;;;;;;5000171;28;20053;-84
2020/12/11 01:57:39;;;;;;;94.35;29.48;;;;;;;;;;4983960;28;20336;-84
2020/12/11 02:00:08;;;;;;;89.30;29.17;;;;;;;;;;5004294;28;20125;-83
2020/12/11 02:02:37;;;;;;;83.88;27.33;;;;;;;;;;5023190;28;20085;-83
2020/12/11 02:05:06;;;;;;;88.35;29.95;;;;;;;;;;4993420;28;20227;-84
2020/12/11 02:07:55;;;;;;;78.07;27.55;;;;;;;;;;5023081;28;20054;-82
2020/12/11 02:10:59;;;;;;;83.68;27.85;;;;;;;;;;5022915;28;20060;-85
2020/12/11 02:13:33;;;;;;;86.78;28.73;;;;;;;;;;5005305;28;20052;-85
2020/12/11 02:16:05;;;;;;;91.82;29.33;;;;;;;;;;5014062;28;20069;-83
2020/12/11 02:18:32;;;;;;;91.07;29.77;;;;;;;;;;4999158;28;20053;-83
2020/12/11 02:20:58;;;;;;;91.43;29.45;;;;;;;;;;4998905;28;20061;-84
2020/12/11 02:23:24;;;;;;;94.50;29.92;;;;;;;;;;4998732;28;20165;-83
2020/12/11 02:25:55;;;;;;;110.95;30.63;;;;;;;;;;4999341;28;20527;-84
2020/12/11 02:28:21;;;;;;;130.82;31.30;;;;;;;;;;5000135;28;20109;-84
2020/12/11 02:30:49;;;;;;;417.05;32.92;;;;;;;;;;4999520;28;20116;-85
2020/12/11 02:33:16;;;;;;;405.77;33.75;;;;;;;;;;4998663;28;20105;-83
2020/12/11 02:35:42;;;;;;;308.30;34.30;;;;;;;;;;5016349;28;20062;-85
2020/12/11 02:38:09;;;;;;;521.30;35.03;;;;;;;;;;4998623;28;20055;-84
2020/12/11 02:40:41;;;;;;;149.07;30.02;;;;;;;;;;5022006;28;20026;-83
2020/12/11 02:43:08;;;;;;;163.63;29.77;;;;;;;;;;5009865;28;20030;-83
2020/12/11 02:45:34;;;;;;;307.92;34.72;;;;;;;;;;5020534;28;20050;-84
2020/12/11 02:48:01;;;;;;;304.02;33.65;;;;;;;;;;5002625;28;20045;-83
2020/12/11 02:50:27;;;;;;;235.60;33.42;;;;;;;;;;5020030;28;20073;-84
2020/12/11 02:52:53;;;;;;;330.42;36.22;;;;;;;;;;5001023;28;20173;-84
2020/12/11 02:55:19;;;;;;;523.03;36.25;;;;;;;;;;4983432;28;20486;-84
2020/12/11 02:57:45;;;;;;;147.13;30.15;;;;;;;;;;5000322;28;20072;-84
2020/12/11 03:00:11;;;;;;;143.35;30.45;;;;;;;;;;4983566;28;20068;-82
2020/12/11 03:02:38;;;;;;;250.52;31.83;;;;;;;;;;5020465;28;20113;-82
2020/12/11 03:05:05;;;;;;;189.60;31.05;;;;;;;;;;5021275;28;20056;-82
2020/12/11 03:07:31;;;;;;;123.10;30.20;;;;;;;;;;4966229;28;20037;-84
2020/12/11 03:09:57;;;;;;;336.10;33.67;;;;;;;;;;5000511;28;20049;-84
2020/12/11 03:12:23;;;;;;;294.90;34.88;;;;;;;;;;5000260;28;20042;-84
2020/12/11 03:14:50;;;;;;;186.02;34.40;;;;;;;;;;4985016;28;20088;-84
2020/12/11 03:17:16;;;;;;;226.05;35.17;;;;;;;;;;4999947;28;20052;-82
2020/12/11 03:19:43;;;;;;;214.45;33.60;;;;;;;;;;4998220;28;20140;-83
2020/12/11 03:22:09;;;;;;;304.27;36.17;;;;;;;;;;5000377;28;20073;-83
2020/12/11 03:24:35;;;;;;;157.18;32.78;;;;;;;;;;5001712;28;20433;-83
2020/12/11 03:27:01;;;;;;;339.88;35.50;;;;;;;;;;5001589;28;20042;-83
2020/12/11 03:29:27;;;;;;;217.07;33.40;;;;;;;;;;5001513;28;20050;-83
2020/12/11 03:31:55;;;;;;;254.25;33.25;;;;;;;;;;5026505;28;20032;-81
2020/12/11 03:34:22;;;;;;;500.30;34.33;;;;;;;;;;4998629;28;20503;-83
2020/12/11 03:36:48;;;;;;;293.20;33.45;;;;;;;;;;4990254;28;20046;-83
2020/12/11 03:39:15;;;;;;;231.27;33.30;;;;;;;;;;4980502;28;20045;-82
2020/12/11 03:41:43;;;;;;;390.95;33.33;;;;;;;;;;5014521;28;20060;-83
2020/12/11 03:44:09;;;;;;;257.08;33.30;;;;;;;;;;5013873;28;20057;-83
2020/12/11 03:46:35;;;;;;;365.05;31.92;;;;;;;;;;5012128;28;20045;-82
2020/12/11 03:49:02;;;;;;;303.95;30.98;;;;;;;;;;5014075;28;20053;-83
2020/12/11 03:51:28;;;;;;;530.55;35.40;;;;;;;;;;4980891;28;20054;-83
2020/12/11 03:53:54;;;;;;;220.35;31.92;;;;;;;;;;4998003;28;20431;-82
2020/12/11 03:56:22;;;;;;;573.58;34.65;;;;;;;;;;5015970;28;20044;-83
2020/12/11 03:58:48;;;;;;;218.18;31.88;;;;;;;;;;4981488;28;20042;-83
2020/12/11 04:01:15;;;;;;;499.38;35.25;;;;;;;;;;4998676;28;20045;-82
2020/12/11 04:03:41;;;;;;;285.30;33.97;;;;;;;;;;4997734;28;20041;-82
2020/12/11 04:06:08;;;;;;;187.75;32.72;;;;;;;;;;4998880;28;20042;-84
2020/12/11 04:08:34;;;;;;;679.22;37.78;;;;;;;;;;4980048;28;20511;-84
2020/12/11 04:11:02;;;;;;;407.40;35.65;;;;;;;;;;5014931;28;20049;-83
2020/12/11 04:13:32;;;;;;;276.88;33.13;;;;;;;;;;5014537;28;20133;-83
2020/12/11 04:15:59;;;;;;;469.73;34.72;;;;;;;;;;5014242;28;20052;-84
2020/12/11 04:18:29;;;;;;;254.73;32.03;;;;;;;;;;5014867;28;20042;-85
2020/12/11 04:20:56;;;;;;;259.50;30.80;;;;;;;;;;4997615;28;20042;-83
2020/12/11 04:23:23;;;;;;;348.20;29.58;;;;;;;;;;4981214;28;20421;-84
2020/12/11 04:25:50;;;;;;;426.58;33.50;;;;;;;;;;4998229;28;20050;-82
2020/12/11 04:28:17;;;;;;;426.45;32.65;;;;;;;;;;4997291;28;20478;-83
2020/12/11 04:30:43;;;;;;;445.88;34.70;;;;;;;;;;4983108;28;20121;-85
2020/12/11 04:33:09;;;;;;;156.95;32.17;;;;;;;;;;5016573;28;20261;-84
2020/12/11 04:35:35;;;;;;;410.27;35.05;;;;;;;;;;4999729;28;20050;-85
2020/12/11 04:38:02;;;;;;;329.63;34.92;;;;;;;;;;5017195;28;20042;-85
2020/12/11 04:40:29;;;;;;;266.80;33.25;;;;;;;;;;5005271;28;20073;-84
2020/12/11 04:42:55;;;;;;;326.90;34.63;;;;;;;;;;5021990;28;20054;-85
2020/12/11 04:45:23;;;;;;;372.63;34.70;;;;;;;;;;5004852;28;20042;-83
2020/12/11 04:47:53;;;;;;;354.30;33.92;;;;;;;;;;5005285;28;20042;-85
2020/12/11 04:50:20;;;;;;;178.88;34.55;;;;;;;;;;5006292;28;20054;-83
2020/12/11 04:52:47;;;;;;;309.00;35.33;;;;;;;;;;5022038;28;20045;-86
2020/12/11 04:55:16;;;;;;;597.47;39.85;;;;;;;;;;5004695;28;20057;-84
2020/12/11 04:57:46;;;;;;;359.42;39.53;;;;;;;;;;5001858;28;20168;-85
2020/12/11 05:00:14;;;;;;;408.55;39.45;;;;;;;;;;5018383;28;20038;-87
2020/12/11 05:02:41;;;;;;;499.55;40.97;;;;;;;;;;4984265;28;20046;-86
2020/12/11 05:05:07;;;;;;;199.75;35.25;;;;;;;;;;4999509;28;20387;-88
2020/12/11 05:07:34;;;;;;;430.88;39.72;;;;;;;;;;4970797;28;20046;-84
2020/12/11 05:10:02;;;;;;;293.95;36.67;;;;;;;;;;4999686;28;20129;-86
2020/12/11 05:12:28;;;;;;;341.50;39.45;;;;;;;;;;4994745;28;20100;-86
2020/12/11 05:14:55;;;;;;;349.65;38.60;;;;;;;;;;4966204;28;20046;-87
2020/12/11 05:17:25;;;;;;;434.38;39.65;;;;;;;;;;4980913;28;20133;-86
2020/12/11 05:19:52;;;;;;;288.95;36.67;;;;;;;;;;4980899;28;20046;-87
2020/12/11 05:22:19;;;;;;;394.63;35.92;;;;;;;;;;4983030;28;20043;-85
2020/12/11 05:24:51;;;;;;;423.15;36.50;;;;;;;;;;4984969;28;20042;-85
2020/12/11 05:27:26;;;;;;;655.70;41.13;;;;;;;;;;5007976;28;20085;-87
2020/12/11 05:29:53;;;;;;;;;;;;;;;;;;5005574;28;20062;-82
2020/12/11 05:32:38;;;;;;;302.65;31.95;;;;;;;;;;5008172;28;19932;-81
2020/12/11 05:35:24;;;;;;;280.88;35.05;;;;;;;;;;4988054;28;20128;-82
2020/12/11 05:38:00;;;;;;;187.55;31.85;;;;;;;;;;4996349;28;20065;-82
2020/12/11 05:40:43;;;;;;;245.00;32.63;;;;;;;;;;5018457;28;20130;-86
2020/12/11 05:43:16;;;;;;;235.20;30.90;;;;;;;;;;4984877;28;20099;-82
2020/12/11 05:45:48;;;;;;;149.32;30.58;;;;;;;;;;5015035;28;20049;-83
2020/12/11 05:48:15;;;;;;;163.70;29.08;;;;;;;;;;4998079;28;20583;-82
2020/12/11 05:50:42;;;;;;;182.80;30.70;;;;;;;;;;5005173;28;20053;-82
2020/12/11 05:53:09;;;;;;;114.68;30.50;;;;;;;;;;4988819;28;20038;-82
2020/12/11 05:55:36;;;;;;;90.07;28.23;;;;;;;;;;5018772;28;20486;-80
2020/12/11 05:58:02;;;;;;;97.05;28.75;;;;;;;;;;5006522;28;20064;-85
2020/12/11 06:00:28;;;;;;;118.85;30.40;;;;;;;;;;4994225;28;20034;-84
2020/12/11 06:02:55;;;;;;;114.88;29.92;;;;;;;;;;4979097;28;20053;-85
2020/12/11 06:05:22;;;;;;;121.22;31.40;;;;;;;;;;4980751;28;20042;-85
2020/12/11 06:07:51;;;;;;;97.97;29.77;;;;;;;;;;4980547;28;20113;-85
2020/12/11 06:10:26;;;;;;;100.82;30.42;;;;;;;;;;4961118;28;20109;-85
2020/12/11 06:13:02;;;;;;;96.88;29.60;;;;;;;;;;4990598;28;20045;-85
2020/12/11 06:15:44;;;;;;;94.65;28.92;;;;;;;;;;4986191;28;20046;-84
2020/12/11 06:18:17;;;;;;;76.75;27.40;;;;;;;;;;5000393;28;20049;-84
2020/12/11 06:20:45;;;;;;;70.05;25.35;;;;;;;;;;5000132;28;20600;-84
2020/12/11 06:23:18;;;;;;;76.85;25.40;;;;;;;;;;4994555;28;20047;-82
2020/12/11 06:25:52;;;;;;;49.42;18.73;;;;;;;;;;5006777;28;20068;-83
2020/12/11 06:28:37;;;;;;;71.72;24.98;;;;;;;;;;5006867;28;20057;-86
2020/12/11 06:31:04;;;;;;;75.47;27.27;;;;;;;;;;4976373;28;20049;-84
2020/12/11 06:33:31;;;;;;;72.32;26.17;;;;;;;;;;4981116;28;20043;-85
2020/12/11 06:36:00;;;;;;;73.03;26.98;;;;;;;;;;4981522;28;20046;-85
2020/12/11 06:38:47;;;;;;;67.97;25.52;;;;;;;;;;4979119;28;20069;-84
2020/12/11 06:41:26;;;;;;;66.40;25.33;;;;;;;;;;4980098;28;20054;-85
2020/12/11 06:43:53;;;;;;;68.70;24.95;;;;;;;;;;4983024;28;20026;-84
2020/12/11 06:46:20;;;;;;;65.78;24.35;;;;;;;;;;5009730;28;20062;-81
2020/12/11 06:49:06;;;;;;;63.00;24.75;;;;;;;;;;4980025;28;20074;-84
2020/12/11 06:51:56;;;;;;;58.20;24.08;;;;;;;;;;4963390;28;20050;-82
2020/12/11 06:54:25;;;;;;;54.58;21.58;;;;;;;;;;4999560;28;20045;-85
2020/12/11 06:57:09;;;;;;;54.70;21.77;;;;;;;;;;5003633;28;20508;-89
2020/12/11 06:59:36;;;;;;;51.28;20.55;;;;;;;;;;4998193;28;20108;-86
2020/12/11 07:02:07;;;;;;;54.65;20.88;;;;;;;;;;4965110;28;20070;-85
2020/12/11 07:04:37;;;;;;;49.03;19.27;;;;;;;;;;4980325;28;20046;-84
2020/12/11 07:07:03;;;;;;;54.15;18.85;;;;;;;;;;4979255;28;20113;-86
2020/12/11 07:09:30;;;;;;;44.88;18.92;;;;;;;;;;4981868;28;20575;-85
2020/12/11 07:11:57;;;;;;;42.65;18.58;;;;;;;;;;4979417;28;20137;-84
2020/12/11 07:14:27;;;;;;;45.75;18.95;;;;;;;;;;4995530;28;20081;-84
2020/12/11 07:16:55;;;;;;;43.45;17.77;;;;;;;;;;4979213;28;20047;-85
2020/12/11 07:19:21;;;;;;;45.53;18.50;;;;;;;;;;4995914;28;20107;-86
2020/12/11 07:21:48;;;;;;;43.00;17.65;;;;;;;;;;5000089;28;20573;-83
2020/12/11 07:24:15;;;;;;;42.30;17.35;;;;;;;;;;4998833;28;20046;-84
2020/12/11 07:26:42;;;;;;;41.88;16.55;;;;;;;;;;5015296;28;20044;-88
2020/12/11 07:29:09;;;;;;;39.70;17.52;;;;;;;;;;4990079;28;20053;-84
2020/12/11 07:31:43;;;;;;;37.65;16.85;;;;;;;;;;4984255;28;20057;-84
2020/12/11 07:34:17;;;;;;;36.17;16.05;;;;;;;;;;4982201;28;20116;-83
2020/12/11 07:36:56;;;;;;;37.33;15.65;;;;;;;;;;4997060;28;20049;-81
2020/12/11 07:39:23;;;;;;;34.75;15.63;;;;;;;;;;4999541;28;20048;-86
2020/12/11 07:41:55;;;;;;;37.08;16.52;;;;;;;;;;4999465;28;20053;-86
2020/12/11 07:44:25;;;;;;;36.47;15.77;;;;;;;;;;4989574;28;20425;-83
2020/12/11 07:46:52;;;;;;;39.05;16.13;;;;;;;;;;4998295;28;20084;-83
2020/12/11 07:49:18;;;;;;;36.95;16.30;;;;;;;;;;4999013;28;20046;-83
2020/12/11 07:51:50;;;;;;;36.50;16.38;;;;;;;;;;4998360;28;20058;-85
2020/12/11 07:54:18;;;;;;;36.65;16.48;;;;;;;;;;4982049;28;20156;-86
2020/12/11 07:56:44;;;;;;;39.08;16.83;;;;;;;;;;4981309;28;20080;-81
2020/12/11 07:59:10;;;;;;;36.45;15.85;;;;;;;;;;5000019;28;20108;-83
2020/12/11 08:01:40;;;;;;;38.78;17.02;;;;;;;;;;4988805;28;20043;-83
2020/12/11 08:04:07;;;;;;;39.17;17.83;;;;;;;;;;4967742;28;20057;-83
2020/12/11 08:06:33;;;;;;;40.28;18.50;;;;;;;;;;5008142;28;20038;-83
2020/12/11 08:09:22;;;;;;;38.33;17.45;;;;;;;;;;5012843;28;20038;-85
2020/12/11 08:11:50;;;;;;;87.30;36.45;;;;;;;;;;4982104;28;20046;-84
2020/12/11 08:14:17;;;;;;;82.90;34.80;;;;;;;;;;4988693;28;20542;-85
2020/12/11 08:16:44;;;;;;;49.00;21.38;;;;;;;;;;4968648;28;20053;-84
2020/12/11 08:19:11;;;;;;;38.92;16.83;;;;;;;;;;5014881;28;20034;-84
2020/12/11 08:21:37;;;;;;;35.17;16.55;;;;;;;;;;4996148;28;20046;-79
2020/12/11 08:24:03;;;;;;;51.60;22.10;;;;;;;;;;5001931;28;20143;-83
2020/12/11 08:26:36;;;;;;;68.43;28.35;;;;;;;;;;4981988;28;20414;-84
2020/12/11 08:29:04;;;;;;;39.22;18.55;;;;;;;;;;5000694;28;20042;-84
2020/12/11 08:31:36;;;;;;;35.45;17.25;;;;;;;;;;5008164;28;20046;-83
2020/12/11 08:34:04;;;;;;;35.40;16.40;;;;;;;;;;4999427;28;20038;-82
2020/12/11 08:36:31;;;;;;;31.70;14.85;;;;;;;;;;5004435;28;20042;-85
2020/12/11 08:39:13;;;;;;;33.70;15.65;;;;;;;;;;4992821;28;20253;-83
2020/12/11 08:44:59;;;;;;;38.10;15.70;;;;;;;;;;4972034;28;20057;-83
2020/12/11 08:50:27;;;;;;;33.47;15.23;;;;;;;;;;4986512;28;19938;-82
2020/12/11 08:52:53;;;;;;;31.95;14.32;;;;;;;;;;4995857;28;20056;-83
2020/12/11 08:55:22;;;;;;;31.55;14.13;;;;;;;;;;4972624;28;20065;-84
2020/12/11 08:57:49;;;;;;;30.85;14.48;;;;;;;;;;4991783;28;20042;-85
2020/12/11 09:00:17;;;;;;;31.38;14.95;;;;;;;;;;4996175;28;20074;-82
2020/12/11 09:02:48;;;;;;;31.30;14.45;;;;;;;;;;5002672;28;20069;-84
2020/12/11 09:05:14;;;;;;;34.10;14.32;;;;;;;;;;5006984;28;20045;-84
2020/12/11 09:07:50;;;;;;;29.08;13.65;;;;;;;;;;4993875;28;20045;-85
2020/12/11 09:10:17;;;;;;;31.00;14.10;;;;;;;;;;4975783;28;20077;-85
2020/12/11 09:12:46;;;;;;;31.63;13.93;;;;;;;;;;4981701;28;20050;-84
2020/12/11 09:15:13;;;;;;;30.08;13.70;;;;;;;;;;5015486;28;20076;-82
2020/12/11 09:17:39;;;;;;;30.50;13.45;;;;;;;;;;4992184;28;20038;-80
2020/12/11 09:20:06;;;;;;;25.80;12.60;;;;;;;;;;4995964;28;20030;-86
2020/12/11 09:22:33;;;;;;;27.33;12.77;;;;;;;;;;4978147;28;20493;-85
2020/12/11 09:25:02;;;;;;;24.30;11.80;;;;;;;;;;5015024;28;20129;-86
2020/12/11 09:27:28;;;;;;;24.55;12.10;;;;;;;;;;4986948;28;20050;-84
2020/12/11 09:30:02;;;;;;;25.88;12.27;;;;;;;;;;4988647;28;20069;-84
2020/12/11 09:32:42;;;;;;;22.17;11.00;;;;;;;;;;4968573;28;20058;-84
2020/12/11 09:35:18;;;;;;;23.15;10.50;;;;;;;;;;4966493;28;20061;-85
2020/12/11 09:37:49;;;;;;;20.63;10.15;;;;;;;;;;4978366;28;20105;-85
2020/12/11 09:40:22;;;;;;;21.17;9.38;;;;;;;;;;4978013;28;20049;-83
2020/12/11 09:45:40;;;;;;;16.92;8.13;;;;;;;;;;4975553;28;20042;-84
2020/12/11 09:48:32;;;;;;;14.95;7.78;;;;;;;;;;5000729;28;20195;-81
2020/12/11 09:51:17;;;;;;;13.77;7.68;;;;;;;;;;4997936;28;20047;-83
2020/12/11 09:56:33;;;;;;;12.82;7.22;;;;;;;;;;4986304;28;20081;-82
2020/12/11 09:59:19;;;;;;;16.08;7.95;;;;;;;;;;4997232;28;20062;-86
2020/12/11 10:04:22;;;;;;;17.00;9.93;;;;;;;;;;4991455;28;20100;-83
2020/12/11 10:06:50;;;;;;;13.30;7.53;;;;;;;;;;5017837;28;20371;-82
2020/12/11 10:09:16;;;;;;;20.35;10.02;;;;;;;;;;4997819;28;20116;-81
2020/12/11 10:11:43;;;;;;;48.08;19.30;;;;;;;;;;5014989;28;20038;-81
2020/12/11 10:16:59;;;;;;;23.42;10.60;;;;;;;;;;5016758;28;20111;-81
2020/12/11 10:19:28;;;;;;;22.02;10.73;;;;;;;;;;4998439;28;20042;-82
2020/12/11 10:21:55;;;;;;;22.42;10.98;;;;;;;;;;4998554;28;20045;-80
2020/12/11 10:24:22;;;;;;;19.38;9.80;;;;;;;;;;4997396;28;20042;-82
2020/12/11 10:26:50;;;;;;;17.70;9.45;;;;;;;;;;5014847;28;20045;-83
2020/12/11 10:29:22;;;;;;;18.52;9.15;;;;;;;;;;5017966;28;20129;-85
2020/12/11 10:32:03;;;;;;;18.45;9.50;;;;;;;;;;5001405;28;20046;-86
2020/12/11 10:34:30;;;;;;;22.73;10.38;;;;;;;;;;4985986;28;20050;-80
2020/12/11 10:36:57;;;;;;;20.45;11.10;;;;;;;;;;5012748;28;20053;-81
2020/12/11 10:39:23;;;;;;;21.95;10.73;;;;;;;;;;4995066;28;20120;-85
2020/12/11 10:41:50;;;;;;;21.63;11.52;;;;;;;;;;5010193;28;20042;-85
2020/12/11 10:44:17;;;;;;;23.83;11.57;;;;;;;;;;4978046;28;20061;-82
2020/12/11 10:47:05;;;;;;;25.25;12.00;;;;;;;;;;5022255;28;20046;-86
2020/12/11 10:49:34;;;;;;;23.30;12.90;;;;;;;;;;5000576;28;20041;-82
2020/12/11 10:52:00;;;;;;;23.92;12.27;;;;;;;;;;4982786;28;20038;-83
2020/12/11 10:54:27;;;;;;;26.63;13.63;;;;;;;;;;5011280;28;20042;-83
2020/12/11 10:56:54;;;;;;;27.45;12.75;;;;;;;;;;4963115;28;20062;-84
2020/12/11 10:59:20;;;;;;;22.10;11.90;;;;;;;;;;5001183;28;20069;-82
2020/12/11 11:01:48;;;;;;;24.45;13.05;;;;;;;;;;5016324;28;20045;-81
2020/12/11 11:04:41;;;;;;;;;;;;;;;;;;;;;
2020/12/11 11:07:13;;;;;;;21.95;12.27;;;;;;;;;;5011098;28;20066;-81
2020/12/11 11:10:00;;;;;;;28.42;12.43;;;;;;;;;;4982280;28;20121;-83
2020/12/11 11:12:34;;;;;;;24.70;13.45;;;;;;;;;;5011006;28;20029;-81
2020/12/11 11:20:36;;;;;;;28.08;13.85;;;;;;;;;;4997981;28;20049;-83
2020/12/11 11:28:30;;;;;;;24.90;13.13;;;;;;;;;;4998692;28;20061;-84
2020/12/11 11:30:56;;;;;;;25.45;13.02;;;;;;;;;;4982294;28;20092;-82
2020/12/11 11:33:22;;;;;;;27.45;13.07;;;;;;;;;;4982489;28;20056;-84
2020/12/11 11:35:49;;;;;;;25.92;13.25;;;;;;;;;;4982603;28;20073;-83
2020/12/11 11:38:26;;;;;;;27.15;13.40;;;;;;;;;;4998285;28;20060;-84
2020/12/11 11:40:53;;;;;;;27.45;13.00;;;;;;;;;;4999056;28;20132;-80
2020/12/11 11:44:25;;;;;;;24.05;12.65;;;;;;;;;;5016976;28;20092;-85
2020/12/11 11:46:09;;;;;;;25.30;12.52;;;;;;;;;;5009601;28;20536;-84
2020/12/11 11:48:39;;;;;;;25.63;14.18;;;;;;;;;;4998492;28;20038;-82
2020/12/11 11:51:11;;;;;;;23.98;13.10;;;;;;;;;;4997003;28;20379;-80
2020/12/11 11:53:37;;;;;;;25.85;12.60;;;;;;;;;;5012594;28;20065;-82
2020/12/11 11:56:03;;;;;;;24.77;13.25;;;;;;;;;;4997081;28;20069;-85
2020/12/11 11:58:29;;;;;;;22.75;12.82;;;;;;;;;;4994655;28;20058;-81
2020/12/11 12:00:56;;;;;;;29.35;13.80;;;;;;;;;;5012843;28;20034;-84
2020/12/11 12:03:30;;;;;;;25.90;13.30;;;;;;;;;;5010382;28;20562;-81
2020/12/11 12:05:56;;;;;;;22.13;12.88;;;;;;;;;;5011289;28;20609;-81
2020/12/11 12:08:23;;;;;;;23.33;13.15;;;;;;;;;;5012278;28;20052;-83
2020/12/11 12:10:52;;;;;;;29.55;13.88;;;;;;;;;;4995061;28;20046;-84
2020/12/11 12:13:44;;;;;;;25.05;12.77;;;;;;;;;;4982536;28;20439;-85
2020/12/11 12:16:33;;;;;;;26.80;13.98;;;;;;;;;;4982409;28;20041;-85
2020/12/11 12:19:04;;;;;;;23.45;12.73;;;;;;;;;;4999045;28;20129;-84
2020/12/11 12:22:31;;;;;;;22.13;11.77;;;;;;;;;;4998452;28;20045;-85
2020/12/11 12:30:19;;;;;;;21.55;11.20;;;;;;;;;;4995709;28;20050;-85
2020/12/11 12:38:58;;;;;;;18.98;10.27;;;;;;;;;;4931734;29;20055;-85
2020/12/11 12:44:51;;;;;;;21.95;9.93;;;;;;;;;;4934016;29;20051;-86
2020/12/11 12:47:47;;;;;;;18.63;9.73;;;;;;;;;;4991258;28;20047;-85
2020/12/11 12:50:16;;;;;;;17.13;9.75;;;;;;;;;;4962010;28;20070;-85
2020/12/11 12:52:45;;;;;;;16.15;9.68;;;;;;;;;;4978207;28;20050;-85
2020/12/11 12:55:27;;;;;;;16.35;9.45;;;;;;;;;;4978842;28;20129;-85
2020/12/11 12:58:00;;;;;;;16.93;10.17;;;;;;;;;;4976958;28;20054;-82
2020/12/11 13:00:49;;;;;;;21.42;9.90;;;;;;;;;;4977253;28;20356;-85
2020/12/11 13:05:57;;;;;;;20.50;9.98;;;;;;;;;;5007339;28;20109;-85
2020/12/11 13:08:23;;;;;;;21.83;10.23;;;;;;;;;;4976711;28;20030;-85
2020/12/11 13:10:51;;;;;;;18.95;10.60;;;;;;;;;;4967254;28;20144;-85
2020/12/11 13:13:37;;;;;;;20.77;10.30;;;;;;;;;;4977493;28;20129;-82
2020/12/11 13:16:07;;;;;;;21.25;11.10;;;;;;;;;;4971888;28;20054;-85
2020/12/11 13:18:53;;;;;;;22.20;10.55;;;;;;;;;;4989470;28;20047;-78
2020/12/11 13:21:26;;;;;;;19.77;10.35;;;;;;;;;;4977226;28;20361;-81
2020/12/11 13:27:20;;;;;;;22.73;10.48;;;;;;;;;;4981501;28;20046;-84
2020/12/11 13:29:57;;;;;;;19.20;11.18;;;;;;;;;;4968120;28;20453;-85
2020/12/11 13:32:23;;;;;;;20.90;11.15;;;;;;;;;;4997289;28;20089;-82
2020/12/11 13:34:50;;;;;;;21.10;11.07;;;;;;;;;;4981659;28;20092;-83
2020/12/11 13:37:16;;;;;;;19.80;11.07;;;;;;;;;;4998917;28;20054;-85
2020/12/11 13:39:43;;;;;;;18.55;10.80;;;;;;;;;;4980834;28;20046;-83
2020/12/11 13:42:13;;;;;;;22.50;11.77;;;;;;;;;;4998042;28;20046;-86
2020/12/11 13:44:39;;;;;;;23.13;11.75;;;;;;;;;;4980194;28;20050;-86
2020/12/11 13:47:07;;;;;;;21.98;11.57;;;;;;;;;;4981029;28;20129;-86
2020/12/11 13:49:41;;;;;;;22.02;11.90;;;;;;;;;;4997125;28;20042;-86
2020/12/11 13:52:07;;;;;;;22.25;12.07;;;;;;;;;;4996816;28;20043;-85
2020/12/11 13:54:34;;;;;;;25.92;12.05;;;;;;;;;;4974271;28;20038;-86
2020/12/11 13:57:00;;;;;;;23.30;11.82;;;;;;;;;;4973392;28;20057;-86
2020/12/11 13:59:30;;;;;;;24.77;11.73;;;;;;;;;;4984971;28;20042;-85
2020/12/11 14:01:57;;;;;;;24.40;11.85;;;;;;;;;;4966441;28;20042;-85
2020/12/11 14:04:26;;;;;;;24.85;11.38;;;;;;;;;;4998669;28;20577;-85
2020/12/11 14:06:55;;;;;;;23.73;12.27;;;;;;;;;;4986879;28;20050;-85
2020/12/11 14:09:23;;;;;;;24.00;12.02;;;;;;;;;;4983932;28;20053;-85
2020/12/11 14:11:51;;;;;;;24.05;12.07;;;;;;;;;;4983631;28;20205;-85
2020/12/11 14:14:29;;;;;;;26.08;14.02;;;;;;;;;;4966030;28;20140;-86
2020/12/11 14:16:58;;;;;;;24.13;12.98;;;;;;;;;;4971133;28;20053;-86
2020/12/11 14:24:59;;;;;;;28.42;12.93;;;;;;;;;;4963102;28;20124;-81
2020/12/11 14:27:25;;;;;;;25.85;12.57;;;;;;;;;;5006248;28;20046;-85
2020/12/11 14:29:51;;;;;;;26.77;13.10;;;;;;;;;;4974645;28;20126;-85
2020/12/11 14:32:18;;;;;;;28.35;12.57;;;;;;;;;;5005685;28;20092;-84
2020/12/11 14:34:47;;;;;;;29.15;13.25;;;;;;;;;;4977377;28;20072;-85
2020/12/11 14:37:13;;;;;;;26.63;12.73;;;;;;;;;;5023593;28;20136;-85
2020/12/11 14:39:40;;;;;;;30.88;12.82;;;;;;;;;;4993054;28;20044;-83
2020/12/11 14:42:09;;;;;;;25.85;13.27;;;;;;;;;;5005800;28;20091;-84
2020/12/11 14:44:35;;;;;;;27.65;13.25;;;;;;;;;;4988255;28;20113;-84
2020/12/11 14:47:03;;;;;;;32.88;15.05;;;;;;;;;;4985343;28;20193;-84
2020/12/11 14:49:30;;;;;;;28.17;13.80;;;;;;;;;;4974114;28;20129;-84
2020/12/11 14:51:57;;;;;;;30.45;13.77;;;;;;;;;;4987571;28;20042;-85
2020/12/11 14:54:38;;;;;;;34.58;15.98;;;;;;;;;;5003658;28;20045;-86
2020/12/11 14:57:06;;;;;;;30.63;14.25;;;;;;;;;;4991559;28;20080;-84
2020/12/11 14:59:32;;;;;;;33.03;15.95;;;;;;;;;;5007423;28;20064;-86
2020/12/11 15:01:58;;;;;;;31.55;15.48;;;;;;;;;;5008029;28;20062;-85
2020/12/11 15:04:24;;;;;;;29.95;14.93;;;;;;;;;;4993525;28;20049;-85
2020/12/11 15:06:51;;;;;;;33.17;15.77;;;;;;;;;;4994070;28;20061;-85
2020/12/11 15:09:17;;;;;;;32.38;16.48;;;;;;;;;;4994846;28;20137;-85
2020/12/11 15:11:44;;;;;;;35.13;16.65;;;;;;;;;;5029898;28;20061;-86
2020/12/11 15:14:12;;;;;;;36.65;16.58;;;;;;;;;;5007911;28;20054;-84
2020/12/11 15:16:43;;;;;;;35.33;15.90;;;;;;;;;;4981276;28;20046;-86
2020/12/11 15:19:11;;;;;;;37.65;16.80;;;;;;;;;;5000870;28;20055;-86
2020/12/11 15:21:38;;;;;;;34.45;17.02;;;;;;;;;;4974986;28;20050;-86
2020/12/11 15:24:05;;;;;;;37.35;16.55;;;;;;;;;;4992951;28;20038;-84